Time;durP1;ratioP1;P1;durP2;ratioP2;P2;SDS_P1;SDS_P2;PMS_P1;PMS_P2;Temp;Humidity;BMP_temperature;BMP_pressure;BME280_temperature;BME280_humidity;BME280_pressure;Samples;Min_cycle;Max_cycle;Signal;HPM_P1;HPM_P2
2022/10/23 00:00:57;;;;;;;27.07;17.67;;;;;;;8.59;100.00;99399.30;1710489;82;21070;-70
2022/10/23 00:03:24;;;;;;;26.20;16.90;;;;;;;8.59;100.00;99392.52;1668188;84;21042;-70
2022/10/23 00:05:50;;;;;;;;;;;;;;;8.64;100.00;99393.91;1670611;84;21447;-70
2022/10/23 00:08:17;;;;;;;25.52;16.12;;;;;;;8.66;100.00;99393.08;1666453;85;20434;-70
2022/10/23 00:10:44;;;;;;;27.80;17.67;;;;;;;8.62;100.00;99392.80;1670918;84;21171;-70
2022/10/23 00:13:11;;;;;;;25.52;17.23;;;;;;;8.63;100.00;99387.66;1707003;82;22193;-70
2022/10/23 00:15:38;;;;;;;25.80;17.90;;;;;;;8.59;100.00;99389.27;1710603;82;21108;-70
2022/10/23 00:18:07;;;;;;;25.05;16.65;;;;;;;8.54;100.00;99391.17;1715942;82;21082;-70
2022/10/23 00:20:34;;;;;;;23.50;16.55;;;;;;;8.49;100.00;99383.28;1710255;82;21077;-70
2022/10/23 00:23:00;;;;;;;24.23;16.42;;;;;;;8.49;100.00;99379.22;1709493;82;21066;-71
2022/10/23 00:25:27;;;;;;;24.52;16.52;;;;;;;8.49;100.00;99378.40;1718921;82;21121;-70
2022/10/23 00:27:53;;;;;;;27.02;16.60;;;;;;;8.46;100.00;99374.33;1712169;82;21017;-69
2022/10/23 00:30:20;;;;;;;25.80;16.93;;;;;;;8.42;100.00;99375.12;1701053;82;21059;-70
2022/10/23 00:32:47;;;;;;;25.77;17.02;;;;;;;8.31;100.00;99368.84;1714318;82;21023;-69
2022/10/23 00:35:14;;;;;;;23.35;17.05;;;;;;;8.26;100.00;99372.84;1716079;82;21083;-70
2022/10/23 00:37:41;;;;;;;22.42;15.45;;;;;;;8.28;100.00;99365.81;1713374;82;21078;-70
2022/10/23 00:40:09;;;;;;;25.40;16.90;;;;;;;8.30;100.00;99361.78;1707420;82;21078;-70
2022/10/23 00:42:36;;;;;;;21.90;16.42;;;;;;;8.27;100.00;99367.70;1713919;82;21024;-70
2022/10/23 00:45:20;;;;;;;24.02;16.23;;;;;;;8.26;100.00;99362.53;1706005;82;21039;-70
2022/10/23 00:47:47;;;;;;;27.77;18.30;;;;;;;8.23;100.00;99365.25;1702625;82;21091;-70
2022/10/23 00:50:14;;;;;;;29.50;17.98;;;;;;;8.16;100.00;99355.72;1710113;82;21116;-70
2022/10/23 00:52:47;;;;;;;23.55;17.00;;;;;;;8.13;100.00;99358.44;1715192;83;21027;-70
2022/10/23 00:55:14;;;;;;;26.50;16.65;;;;;;;8.14;100.00;99349.22;1707027;81;21079;-70
2022/10/23 00:57:42;;;;;;;23.92;16.85;;;;;;;8.18;100.00;99352.22;1756166;80;21006;-70
2022/10/23 01:00:20;;;;;;;25.23;16.23;;;;;;;8.19;100.00;99347.88;1749150;80;21070;-70
2022/10/23 01:02:47;;;;;;;23.47;16.25;;;;;;;8.22;100.00;99343.27;1745418;80;21046;-69
2022/10/23 01:05:14;;;;;;;25.48;17.02;;;;;;;8.21;100.00;99341.66;1746991;80;21640;-70
2022/10/23 01:08:03;;;;;;;;;;;;;;;8.18;100.00;99342.20;1732358;81;21501;-70
2022/10/23 01:10:38;;;;;;;25.32;15.98;;;;;;;8.20;100.00;99337.31;1708375;81;20165;-67
2022/10/23 01:13:29;;;;;;;25.43;15.70;;;;;;;8.19;100.00;99334.85;1760017;81;20994;-68
2022/10/23 01:16:08;;;;;;;23.42;16.02;;;;;;;8.20;100.00;99334.59;1724578;81;21051;-68
2022/10/23 01:18:49;;;;;;;24.75;16.20;;;;;;;8.21;100.00;99331.35;1754999;81;21044;-68
2022/10/23 01:21:21;;;;;;;27.48;17.27;;;;;;;8.20;100.00;99331.89;1735266;80;22016;-68
2022/10/23 01:23:58;;;;;;;22.95;17.82;;;;;;;8.18;100.00;99336.77;1756846;80;20995;-68
2022/10/23 01:26:42;;;;;;;28.83;17.45;;;;;;;8.20;100.00;99333.78;1741929;80;21035;-68
2022/10/23 01:29:24;;;;;;;22.35;15.93;;;;;;;8.27;100.00;99332.45;1754950;80;21006;-68
2022/10/23 01:32:18;;;;;;;25.17;16.37;;;;;;;8.32;100.00;99323.56;1751429;81;21030;-68
2022/10/23 01:34:57;;;;;;;21.95;16.75;;;;;;;8.35;100.00;99327.91;1706512;80;21003;-68
2022/10/23 01:37:29;;;;;;;21.60;16.60;;;;;;;8.33;100.00;99331.95;1753485;80;22117;-68
2022/10/23 01:39:59;;;;;;;22.42;16.50;;;;;;;8.26;100.00;99324.57;1752159;80;21089;-68
2022/10/23 01:42:32;;;;;;;23.27;16.95;;;;;;;8.29;100.00;99324.09;1749061;80;21061;-68
2022/10/23 01:45:04;;;;;;;24.70;17.20;;;;;;;8.31;100.00;99321.38;1721109;82;21091;-68
2022/10/23 01:47:33;;;;;;;24.65;16.77;;;;;;;8.31;100.00;99322.73;1715163;82;21098;-68
2022/10/23 01:50:03;;;;;;;25.50;17.17;;;;;;;8.30;100.00;99325.17;1699686;82;21107;-68
2022/10/23 01:52:31;;;;;;;20.30;15.53;;;;;;;8.32;100.00;99323.02;1703463;82;21090;-68
2022/10/23 01:54:59;;;;;;;21.80;16.12;;;;;;;8.32;100.00;99326.27;1703721;82;21625;-69
2022/10/23 01:57:29;;;;;;;24.87;17.95;;;;;;;8.30;100.00;99326.52;1694850;83;21081;-68
2022/10/23 02:00:00;;;;;;;22.75;17.42;;;;;;;8.25;100.00;99318.36;1696850;83;21132;-69
2022/10/23 02:02:27;;;;;;;24.60;18.17;;;;;;;8.22;100.00;99319.44;1664313;84;21541;-69
2022/10/23 02:05:09;;;;;;;;;;;;;;;8.26;100.00;99327.28;1744235;81;21622;-68
2022/10/23 02:07:37;;;;;;;24.90;17.77;;;;;;;8.26;100.00;99318.61;1737157;81;20130;-68
2022/10/23 02:10:04;;;;;;;25.35;17.25;;;;;;;8.21;100.00;99323.22;1737358;81;21027;-69
2022/10/23 02:12:45;;;;;;;22.27;16.90;;;;;;;8.24;100.00;99331.63;1710670;82;21040;-70
2022/10/23 02:15:28;;;;;;;24.15;16.65;;;;;;;8.29;100.00;99328.95;1740365;81;21074;-68
2022/10/23 02:18:12;;;;;;;28.10;18.80;;;;;;;8.34;100.00;99331.70;1736985;81;21449;-69
2022/10/23 02:20:45;;;;;;;22.77;17.48;;;;;;;8.32;100.00;99329.80;1745445;80;21050;-69
2022/10/23 02:23:22;;;;;;;23.35;17.48;;;;;;;8.35;100.00;99325.20;1742823;81;21034;-68
2022/10/23 02:26:18;;;;;;;;;;;;;;;8.45;100.00;99326.58;1745347;81;21537;-69
2022/10/23 02:28:51;;;;;;;23.92;17.05;;;;;;;8.49;100.00;99327.67;1735299;81;20143;-69
2022/10/23 02:31:19;;;;;;;24.30;17.10;;;;;;;8.41;100.00;99326.83;1722139;81;21063;-69
2022/10/23 02:33:47;;;;;;;22.87;16.70;;;;;;;8.44;100.00;99327.65;1725550;81;21058;-69
2022/10/23 02:36:15;;;;;;;25.10;17.25;;;;;;;8.46;100.00;99327.39;1707424;82;21594;-69
2022/10/23 02:38:43;;;;;;;21.30;16.85;;;;;;;8.42;100.00;99322.23;1734284;81;21514;-69
2022/10/23 02:41:50;;;;;;;23.73;16.67;;;;;;;8.40;100.00;99322.48;1703646;83;21111;-69
2022/10/23 02:44:48;;;;;;;23.95;17.45;;;;;;;8.42;100.00;99326.30;1700765;84;21035;-69
2022/10/23 02:47:20;;;;;;;23.20;16.70;;;;;;;8.41;100.00;99316.52;1701122;83;21097;-69
2022/10/23 02:50:04;;;;;;;22.10;16.93;;;;;;;8.39;100.00;99320.88;1731021;82;21046;-69
2022/10/23 02:52:49;;;;;;;21.40;17.10;;;;;;;8.44;100.00;99324.94;1709733;81;21402;-69
2022/10/23 02:55:53;;;;;;;22.70;17.50;;;;;;;8.47;100.00;99324.39;1726038;81;21097;-68
2022/10/23 02:58:34;;;;;;;21.40;16.30;;;;;;;8.48;100.00;99321.97;1736092;81;21067;-68
2022/10/23 03:01:09;;;;;;;20.15;15.72;;;;;;;8.48;100.00;99321.97;1681724;83;21184;-68
2022/10/23 03:03:43;;;;;;;22.95;16.17;;;;;;;8.48;100.00;99319.25;1738191;81;21055;-68
2022/10/23 03:06:09;;;;;;;22.37;16.05;;;;;;;8.53;100.00;99326.59;1735492;81;21018;-68
2022/10/23 03:08:58;;;;;;;22.37;16.75;;;;;;;8.57;100.00;99316.02;1683018;84;21015;-68
2022/10/23 03:11:25;;;;;;;23.60;16.45;;;;;;;8.58;100.00;99317.09;1702731;82;21103;-67
2022/10/23 03:13:53;;;;;;;24.07;17.07;;;;;;;8.59;100.00;99325.52;1738955;81;21062;-69
2022/10/23 03:16:19;;;;;;;20.08;15.18;;;;;;;8.57;100.00;99322.27;1724413;80;21158;-69
2022/10/23 03:18:47;;;;;;;18.35;14.45;;;;;;;8.63;100.00;99318.47;1741842;81;21003;-69
2022/10/23 03:21:14;;;;;;;;;;;;;;;8.73;100.00;99319.84;1744646;81;21086;-69
2022/10/23 03:23:40;;;;;;;17.37;13.85;;;;;;;8.79;100.00;99326.07;1742931;81;20580;-69
2022/10/23 03:26:07;;;;;;;;;;;;;;;8.70;100.00;99314.13;1707089;82;21049;-69
2022/10/23 03:28:35;;;;;;;19.80;14.43;;;;;;;8.69;100.00;99316.56;1703362;83;20133;-69
2022/10/23 03:31:02;;;;;;;16.50;13.85;;;;;;;8.65;100.00;99318.19;1731760;81;21922;-69
2022/10/23 03:33:29;;;;;;;16.45;12.75;;;;;;;8.78;100.00;99319.03;1741944;81;21063;-69
2022/10/23 03:35:57;;;;;;;19.75;14.05;;;;;;;8.83;100.00;99319.02;1727935;81;21436;-69
2022/10/23 03:38:24;;;;;;;16.67;13.53;;;;;;;8.82;100.00;99314.70;1739450;81;21034;-69
2022/10/23 03:40:50;;;;;;;16.65;13.32;;;;;;;8.86;100.00;99310.34;1729907;81;21637;-69
2022/10/23 03:43:16;;;;;;;16.50;13.15;;;;;;;8.94;100.00;99314.70;1737858;81;21402;-69
2022/10/23 03:45:43;;;;;;;;;;;;;;;8.96;100.00;99314.44;1738308;80;21066;-70
2022/10/23 03:48:09;;;;;;;17.17;13.70;;;;;;;8.94;100.00;99309.27;1730075;81;20147;-68
2022/10/23 03:50:36;;;;;;;17.75;13.88;;;;;;;8.87;100.00;99314.69;1736234;82;21039;-68
2022/10/23 03:53:02;;;;;;;;;;;;;;;8.95;100.00;99312.80;1747371;82;21105;-68
2022/10/23 03:55:30;;;;;;;15.83;12.40;;;;;;;9.06;100.00;99312.25;1736552;81;20236;-71
2022/10/23 03:57:56;;;;;;;18.30;13.20;;;;;;;9.07;100.00;99312.53;1749663;81;21022;-69
2022/10/23 04:00:22;;;;;;;18.77;13.65;;;;;;;9.05;100.00;99309.27;1748719;80;21073;-69
2022/10/23 04:02:51;;;;;;;16.25;12.20;;;;;;;9.06;100.00;99307.64;1741792;81;21077;-69
2022/10/23 04:05:19;;;;;;;17.12;13.20;;;;;;;9.17;100.00;99309.81;1739461;80;21680;-68
2022/10/23 04:07:47;;;;;;;19.42;13.48;;;;;;;9.23;100.00;99310.07;1743594;81;21098;-67
2022/10/23 04:10:14;;;;;;;16.12;13.32;;;;;;;9.25;100.00;99303.81;1735158;80;21692;-67
2022/10/23 04:12:41;;;;;;;15.45;13.05;;;;;;;9.22;100.00;99302.46;1749078;80;21080;-67
2022/10/23 04:15:08;;;;;;;17.27;13.05;;;;;;;9.27;100.00;99295.68;1740665;80;21609;-66
2022/10/23 04:17:36;;;;;;;15.65;13.05;;;;;;;9.33;100.00;99302.72;1741894;81;21061;-67
2022/10/23 04:20:04;;;;;;;16.00;12.53;;;;;;;9.36;100.00;99301.35;1748451;80;21659;-67
2022/10/23 04:22:31;;;;;;;16.57;12.78;;;;;;;9.33;100.00;99301.37;1751561;81;21073;-67
2022/10/23 04:24:57;;;;;;;15.75;12.18;;;;;;;9.37;100.00;99301.63;1740125;81;21596;-67
2022/10/23 04:27:24;;;;;;;17.15;13.20;;;;;;;9.40;100.00;99292.92;1751944;80;21010;-67
2022/10/23 04:29:51;;;;;;;17.57;13.83;;;;;;;9.40;100.00;99288.86;1742827;81;21095;-67
2022/10/23 04:32:18;;;;;;;15.32;12.68;;;;;;;9.36;100.00;99295.92;1716981;81;21058;-69
2022/10/23 04:34:46;;;;;;;18.60;13.05;;;;;;;9.38;100.00;99293.77;1724336;81;21022;-68
2022/10/23 04:37:12;;;;;;;15.28;12.47;;;;;;;9.43;100.00;99295.09;1744089;80;21033;-67
2022/10/23 04:39:39;;;;;;;17.00;13.75;;;;;;;9.44;100.00;99291.30;1727754;81;21012;-67
2022/10/23 04:42:05;;;;;;;16.37;12.73;;;;;;;9.41;100.00;99294.02;1754333;81;21042;-67
2022/10/23 04:44:31;;;;;;;14.93;12.47;;;;;;;9.45;100.00;99291.58;1757681;81;21022;-67
2022/10/23 04:46:58;;;;;;;15.35;11.90;;;;;;;9.46;100.00;99287.20;1706756;82;21066;-67
2022/10/23 04:49:24;;;;;;;14.23;11.93;;;;;;;9.47;100.00;99293.45;1672301;84;20991;-67
2022/10/23 04:52:09;;;;;;;15.32;12.33;;;;;;;9.49;100.00;99289.37;1684338;84;21091;-68
2022/10/23 04:54:43;;;;;;;17.95;13.45;;;;;;;9.52;100.00;99292.64;1656684;84;21061;-67
2022/10/23 04:57:27;;;;;;;16.05;12.88;;;;;;;9.50;100.00;99299.16;1718767;82;21624;-67
2022/10/23 04:59:56;;;;;;;16.48;12.00;;;;;;;9.57;100.00;99301.58;1689776;85;21912;-67
2022/10/23 05:02:23;;;;;;;15.95;12.73;;;;;;;9.60;100.00;99301.59;1660817;84;21063;-67
2022/10/23 05:04:50;;;;;;;15.18;12.30;;;;;;;9.61;100.00;99304.56;1750113;80;21438;-67
2022/10/23 05:07:25;;;;;;;17.85;13.13;;;;;;;9.59;100.00;99304.04;1698872;82;21080;-67
2022/10/23 05:10:00;;;;;;;14.70;12.10;;;;;;;9.54;100.00;99300.78;1697474;80;21042;-67
2022/10/23 05:12:41;;;;;;;16.65;11.97;;;;;;;9.57;100.00;99303.48;1745634;81;21032;-67
2022/10/23 05:15:09;;;;;;;13.35;11.43;;;;;;;9.60;100.00;99302.95;1739256;81;21621;-67
2022/10/23 05:17:39;;;;;;;16.48;12.43;;;;;;;9.62;100.00;99307.02;1745532;81;21051;-69
2022/10/23 05:20:10;;;;;;;14.68;12.03;;;;;;;9.63;100.00;99310.02;1742926;80;21150;-67
2022/10/23 05:22:38;;;;;;;14.78;11.57;;;;;;;9.64;100.00;99310.26;1754091;81;22251;-67
2022/10/23 05:25:07;;;;;;;14.70;12.15;;;;;;;9.70;100.00;99313.80;1752502;81;22312;-67
2022/10/23 05:27:34;;;;;;;15.80;12.25;;;;;;;9.73;100.00;99302.36;1716389;82;21094;-67
2022/10/23 05:30:04;;;;;;;17.87;13.32;;;;;;;9.77;100.00;99297.47;1713119;83;21058;-67
2022/10/23 05:32:33;;;;;;;20.50;15.60;;;;;;;9.77;100.00;99294.75;1685544;85;21045;-67
2022/10/23 05:34:59;;;;;;;;;;;;;;;9.75;100.00;99301.53;1694976;84;21111;-68
2022/10/23 05:37:28;;;;;;;15.55;13.22;;;;;;;9.76;100.00;99293.66;1710783;83;20145;-68
2022/10/23 05:39:56;;;;;;;15.53;12.07;;;;;;;9.77;100.00;99294.75;1688816;83;21105;-68
2022/10/23 05:42:22;;;;;;;22.30;17.50;;;;;;;9.83;100.00;99302.33;1754934;82;21014;-68
2022/10/23 05:44:50;;;;;;;17.15;13.45;;;;;;;9.89;100.00;99301.21;1708005;83;21161;-68
2022/10/23 05:47:19;;;;;;;22.02;18.20;;;;;;;9.86;100.00;99303.95;1686954;84;21051;-68
2022/10/23 05:50:02;;;;;;;16.57;12.98;;;;;;;9.88;100.00;99311.84;1632959;86;21077;-68
2022/10/23 05:52:39;;;;;;;19.37;14.07;;;;;;;9.91;100.00;99307.20;1705082;81;21397;-68
2022/10/23 05:55:16;;;;;;;17.98;13.80;;;;;;;9.94;100.00;99310.18;1749891;80;21600;-68
2022/10/23 05:57:47;;;;;;;18.32;13.35;;;;;;;9.96;100.00;99316.68;1746468;81;21067;-68
2022/10/23 06:00:16;;;;;;;16.93;13.70;;;;;;;9.95;100.00;99313.14;1742879;82;21376;-68
2022/10/23 06:02:44;;;;;;;19.37;14.10;;;;;;;9.95;100.00;99310.42;1708863;83;21717;-68
2022/10/23 06:05:26;;;;;;;17.85;13.68;;;;;;;10.00;100.00;99307.70;1695425;83;21071;-67
2022/10/23 06:07:59;;;;;;;18.10;13.60;;;;;;;10.09;100.00;99314.75;1720568;82;21026;-68
2022/10/23 06:10:26;;;;;;;19.82;14.15;;;;;;;10.13;100.00;99309.56;1741936;82;21099;-67
2022/10/23 06:12:54;;;;;;;18.77;14.05;;;;;;;10.15;100.00;99310.12;1722967;82;21359;-67
2022/10/23 06:15:20;;;;;;;;;;;;;;;10.12;100.00;99304.67;1743892;80;21656;-68
2022/10/23 06:17:54;;;;;;;18.73;14.23;;;;;;;10.12;100.00;99306.03;1741025;82;20449;-68
2022/10/23 06:20:20;;;;;;;;;;;;;;;10.11;100.00;99307.11;1708222;82;21326;-66
2022/10/23 06:22:49;;;;;;;19.55;14.10;;;;;;;10.14;100.00;99320.18;1703526;83;20144;-67
2022/10/23 06:25:21;;;;;;;19.62;14.85;;;;;;;10.14;100.00;99313.89;1675340;82;21087;-66
2022/10/23 06:27:50;;;;;;;23.05;16.42;;;;;;;10.21;100.00;99315.25;1710782;82;21063;-67
2022/10/23 06:30:17;;;;;;;19.67;14.83;;;;;;;10.23;100.00;99321.24;1744204;80;21090;-67
2022/10/23 06:32:46;;;;;;;18.15;14.38;;;;;;;10.27;100.00;99320.92;1739321;82;21006;-67
2022/10/23 06:35:14;;;;;;;21.25;15.18;;;;;;;10.34;100.00;99318.74;1746205;80;21047;-67
2022/10/23 06:37:41;;;;;;;19.60;13.78;;;;;;;10.39;100.00;99317.34;1744374;82;21022;-67
2022/10/23 06:40:09;;;;;;;18.70;14.05;;;;;;;10.43;100.00;99328.47;1724945;82;21055;-66
2022/10/23 06:42:38;;;;;;;20.92;15.20;;;;;;;10.45;100.00;99337.19;1739404;82;21011;-67
2022/10/23 06:45:24;;;;;;;19.80;15.00;;;;;;;10.42;100.00;99339.91;1743203;82;21099;-67
2022/10/23 06:47:52;;;;;;;18.20;14.53;;;;;;;10.44;100.00;99338.27;1731120;82;21034;-67
2022/10/23 06:50:37;;;;;;;18.57;14.63;;;;;;;10.49;100.00;99334.97;1742644;82;21125;-67
2022/10/23 06:53:08;;;;;;;19.15;14.85;;;;;;;10.57;100.00;99336.83;1719332;82;21138;-67
2022/10/23 06:55:38;;;;;;;20.65;15.58;;;;;;;10.60;100.00;99330.82;1733495;82;21413;-67
2022/10/23 06:58:09;;;;;;;21.05;15.80;;;;;;;10.62;100.00;99330.01;1711056;82;21422;-67
2022/10/23 07:00:38;;;;;;;21.05;15.38;;;;;;;10.66;100.00;99332.44;1737804;80;21466;-68
2022/10/23 07:03:07;;;;;;;22.37;16.20;;;;;;;10.65;100.00;99328.90;1735152;82;21281;-66
2022/10/23 07:05:34;;;;;;;22.52;17.20;;;;;;;10.64;100.00;99337.33;1709169;84;21086;-66
2022/10/23 07:08:03;;;;;;;22.95;17.32;;;;;;;10.64;100.00;99333.25;1716503;82;21056;-69
2022/10/23 07:10:32;;;;;;;23.47;17.02;;;;;;;10.63;100.00;99322.12;1732100;80;21083;-68
2022/10/23 07:13:02;;;;;;;22.98;16.87;;;;;;;10.64;100.00;99332.70;1744260;82;21397;-67
2022/10/23 07:15:38;;;;;;;22.85;17.12;;;;;;;10.68;100.00;99329.69;1745805;80;21592;-67
2022/10/23 07:18:05;;;;;;;24.23;16.80;;;;;;;10.74;100.00;99327.73;1745334;82;21007;-67
2022/10/23 07:20:33;;;;;;;25.40;17.65;;;;;;;10.77;100.00;99327.98;1740304;82;21079;-69
2022/10/23 07:23:00;;;;;;;26.00;17.70;;;;;;;10.79;100.00;99327.71;1736332;82;21063;-69
2022/10/23 07:25:32;;;;;;;24.32;17.70;;;;;;;10.77;100.00;99325.27;1716024;82;21042;-69
2022/10/23 07:27:59;;;;;;;25.32;18.52;;;;;;;10.82;100.00;99326.59;1710874;84;21034;-66
2022/10/23 07:30:27;;;;;;;23.15;17.87;;;;;;;10.90;100.00;99332.00;1714777;82;21042;-67
2022/10/23 07:32:54;;;;;;;;;;;;;;;10.92;100.00;99328.42;1749052;82;21027;-67
2022/10/23 07:35:40;;;;;;;26.27;17.85;;;;;;;10.94;100.00;99327.61;1720817;82;20115;-66
2022/10/23 07:38:08;;;;;;;24.85;17.92;;;;;;;10.97;100.00;99328.41;1713353;82;21023;-66
2022/10/23 07:40:37;;;;;;;26.42;18.10;;;;;;;11.02;100.00;99333.00;1731221;80;21045;-66
2022/10/23 07:43:03;;;;;;;27.22;18.77;;;;;;;11.05;100.00;99331.89;1715509;82;22288;-67
2022/10/23 07:45:30;;;;;;;;;;;;;;;11.03;100.00;99327.80;1731455;80;21141;-66
2022/10/23 07:47:58;;;;;;;23.80;17.27;;;;;;;11.04;100.00;99328.08;1684266;84;20964;-66
2022/10/23 07:50:26;;;;;;;25.12;18.60;;;;;;;11.05;100.00;99328.34;1744557;80;21087;-66
2022/10/23 07:52:53;;;;;;;22.67;16.90;;;;;;;11.10;100.00;99332.38;1744081;82;21067;-67
2022/10/23 07:55:21;;;;;;;25.45;17.98;;;;;;;11.12;100.00;99336.47;1704060;83;21086;-67
2022/10/23 07:57:53;;;;;;;31.30;20.50;;;;;;;11.18;100.00;99329.86;1727357;82;21648;-67
2022/10/23 08:00:28;;;;;;;25.75;18.87;;;;;;;11.18;100.00;99328.50;1725756;82;21075;-67
2022/10/23 08:02:57;;;;;;;25.43;18.62;;;;;;;11.21;100.00;99336.64;1728680;82;21703;-67
2022/10/23 08:05:24;;;;;;;24.75;17.77;;;;;;;11.24;100.00;99335.52;1682530;83;21114;-67
2022/10/23 08:07:56;;;;;;;23.57;17.55;;;;;;;11.32;100.00;99340.38;1732665;81;21593;-67
2022/10/23 08:10:22;;;;;;;24.55;18.37;;;;;;;11.38;100.00;99339.77;1731218;82;22301;-66
2022/10/23 08:12:49;;;;;;;25.72;17.60;;;;;;;11.40;100.00;99341.67;1730149;82;21313;-68
2022/10/23 08:15:19;;;;;;;26.02;18.10;;;;;;;11.42;100.00;99336.19;1742090;81;21128;-67
2022/10/23 08:17:50;;;;;;;22.85;16.60;;;;;;;11.43;100.00;99339.73;1737299;81;21002;-67
2022/10/23 08:20:19;;;;;;;22.20;16.77;;;;;;;11.51;100.00;99339.66;1728326;82;21047;-67
2022/10/23 08:22:47;;;;;;;24.32;16.95;;;;;;;11.57;100.00;99339.87;1728917;82;20963;-67
2022/10/23 08:25:16;;;;;;;22.37;17.07;;;;;;;11.62;100.00;99341.19;1726268;81;21122;-68
2022/10/23 08:27:43;;;;;;;21.05;15.45;;;;;;;11.64;100.00;99347.16;1732717;81;21526;-67
2022/10/23 08:30:11;;;;;;;25.00;16.95;;;;;;;11.63;100.00;99344.16;1721219;82;21059;-67
2022/10/23 08:32:39;;;;;;;22.13;15.68;;;;;;;11.63;100.00;99353.70;1719624;82;21062;-67
2022/10/23 08:35:06;;;;;;;;;;;;;;;11.55;100.00;99352.41;1722507;82;21070;-68
2022/10/23 08:37:33;;;;;;;;;;;;;;;11.52;100.00;99360.34;1731155;81;20198;-67
2022/10/23 08:39:59;;;;;;;22.62;14.85;;;;;;;11.48;100.00;99354.66;1738746;81;20138;-68
2022/10/23 08:42:47;;;;;;;21.75;14.13;;;;;;;11.47;100.00;99359.32;1576644;90;21235;-68
2022/10/23 08:45:38;;;;;;;22.75;14.68;;;;;;;11.51;100.00;99358.74;1684938;82;21039;-67
2022/10/23 08:48:31;;;;;;;21.62;15.32;;;;;;;11.54;100.00;99350.80;1737105;81;21379;-68
2022/10/23 08:51:20;;;;;;;20.48;15.23;;;;;;;11.58;100.00;99360.03;1698813;83;21086;-68
2022/10/23 08:54:07;;;;;;;20.95;14.25;;;;;;;11.56;100.00;99358.13;1720224;82;21075;-68
2022/10/23 08:56:37;;;;;;;20.72;13.35;;;;;;;11.61;100.00;99355.91;1722940;81;21106;-68
2022/10/23 08:59:31;;;;;;;20.37;14.35;;;;;;;11.68;100.00;99358.57;1726748;82;21014;-69
2022/10/23 09:02:18;;;;;;;20.25;14.13;;;;;;;11.74;100.00;99356.62;1746620;82;20987;-69
2022/10/23 09:04:47;;;;;;;20.90;14.45;;;;;;;11.82;100.00;99357.37;1735142;82;21094;-67
2022/10/23 09:07:28;;;;;;;22.20;14.98;;;;;;;11.93;100.00;99361.07;1746252;82;21044;-68
2022/10/23 09:13:34;;;;;;;23.73;16.00;;;;;;;12.08;100.00;99349.72;1799214;78;22801;-68
2022/10/23 09:16:26;;;;;;;20.88;14.63;;;;;;;12.12;100.00;99365.75;1733518;81;21157;-69
2022/10/23 09:18:53;;;;;;;19.90;14.80;;;;;;;12.21;100.00;99365.38;1733214;81;20997;-68
2022/10/23 09:21:27;;;;;;;21.52;15.63;;;;;;;12.25;100.00;99363.70;1720957;80;21070;-68
2022/10/23 09:23:53;;;;;;;20.23;14.70;;;;;;;12.28;100.00;99365.30;1724279;83;20997;-68
2022/10/23 09:26:20;;;;;;;19.45;14.15;;;;;;;12.30;100.00;99364.98;1723372;82;21066;-68
2022/10/23 09:28:55;;;;;;;18.32;13.88;;;;;;;12.36;100.00;99361.89;1727914;81;21417;-68
2022/10/23 09:31:21;;;;;;;21.20;15.48;;;;;;;12.39;100.00;99365.98;1723645;81;21164;-68
2022/10/23 09:34:00;;;;;;;19.07;14.35;;;;;;;12.39;100.00;99369.53;1722961;83;21573;-67
2022/10/23 09:36:28;;;;;;;19.82;13.62;;;;;;;12.37;100.00;99357.25;1722684;82;21121;-68
2022/10/23 09:39:00;;;;;;;21.62;14.00;;;;;;;12.37;100.00;99370.36;1723329;83;21935;-67
2022/10/23 09:41:37;;;;;;;16.80;12.98;;;;;;;12.37;100.00;99368.99;1709676;81;21439;-68
2022/10/23 09:44:27;;;;;;;16.60;13.55;;;;;;;12.34;100.00;99370.13;1717023;83;21576;-67
2022/10/23 09:47:10;;;;;;;18.12;14.00;;;;;;;12.36;100.00;99367.94;1722731;82;21125;-68
2022/10/23 09:49:39;;;;;;;15.23;11.97;;;;;;;12.35;100.00;99369.84;1723289;81;21082;-68
2022/10/23 09:52:17;;;;;;;17.05;12.75;;;;;;;12.37;100.00;99363.53;1725962;81;21421;-68
2022/10/23 09:54:49;;;;;;;15.38;12.05;;;;;;;12.42;100.00;99368.13;1722502;82;21070;-67
2022/10/23 09:57:42;;;;;;;14.73;12.30;;;;;;;12.46;100.00;99359.06;1722409;83;21081;-67
2022/10/23 10:00:24;;;;;;;17.05;12.63;;;;;;;12.52;100.00;99363.89;1723299;81;21089;-67
2022/10/23 10:03:05;;;;;;;16.97;12.30;;;;;;;12.54;100.00;99364.98;1726737;81;21024;-68
2022/10/23 10:05:40;;;;;;;17.40;13.38;;;;;;;12.53;100.00;99357.33;1723936;82;21572;-68
2022/10/23 10:08:26;;;;;;;15.10;11.93;;;;;;;12.56;100.00;99362.75;1695951;83;21042;-68
2022/10/23 10:10:57;;;;;;;16.73;12.10;;;;;;;12.58;100.00;99363.25;1724751;81;21038;-68
2022/10/23 10:13:46;;;;;;;13.62;10.68;;;;;;;12.59;100.00;99365.70;1713809;82;21454;-69
2022/10/23 10:16:28;;;;;;;12.55;10.10;;;;;;;12.62;100.00;99366.48;1709060;84;21086;-68
2022/10/23 10:19:07;;;;;;;15.45;10.95;;;;;;;12.62;100.00;99363.75;1658015;85;21508;-68
2022/10/23 10:22:08;;;;;;;11.78;10.00;;;;;;;12.58;100.00;99365.44;1656269;85;21083;-68
2022/10/23 10:24:40;;;;;;;13.95;10.50;;;;;;;12.56;100.00;99360.02;1653305;85;21091;-68
2022/10/23 10:27:12;;;;;;;10.50;8.75;;;;;;;12.52;100.00;99352.97;1708849;83;21407;-68
2022/10/23 10:29:57;;;;;;;11.97;9.30;;;;;;;12.52;100.00;99352.16;1709772;83;21021;-67
2022/10/23 10:32:57;;;;;;;11.33;8.98;;;;;;;12.54;100.00;99349.95;1707379;82;21090;-68
2022/10/23 10:35:40;;;;;;;11.40;9.28;;;;;;;12.55;100.00;99352.92;1708456;82;21081;-68
2022/10/23 10:38:49;;;;;;;11.90;8.80;;;;;;;12.54;100.00;99345.86;1704907;83;21105;-68
2022/10/23 10:41:21;;;;;;;9.67;8.10;;;;;;;12.54;100.00;99352.69;1697994;83;21095;-68
2022/10/23 10:44:10;;;;;;;11.75;9.08;;;;;;;12.54;100.00;99352.69;1710303;82;21431;-67
2022/10/23 10:46:58;;;;;;;11.80;9.30;;;;;;;12.51;100.00;99345.87;1709440;82;21075;-67
2022/10/23 10:49:42;;;;;;;12.55;8.93;;;;;;;12.52;100.00;99346.14;1701469;83;21109;-67
2022/10/23 10:52:43;;;;;;;13.43;8.78;;;;;;;12.53;100.00;99348.33;1711637;82;21061;-66
2022/10/23 10:55:41;;;;;;;10.95;8.18;;;;;;;12.55;100.00;99346.92;1710600;82;21141;-67
2022/10/23 10:58:25;;;;;;;10.38;8.05;;;;;;;12.57;100.00;99345.27;1709060;83;21692;-65
2022/10/23 11:00:57;;;;;;;10.70;7.10;;;;;;;12.58;100.00;99344.14;1708858;82;22411;-67
2022/10/23 11:03:40;;;;;;;8.70;6.78;;;;;;;12.67;100.00;99344.58;1709127;83;21090;-66
2022/10/23 11:06:19;;;;;;;7.70;6.45;;;;;;;12.79;100.00;99342.75;1707157;82;21114;-66
2022/10/23 11:08:48;;;;;;;9.58;6.95;;;;;;;12.89;100.00;99348.09;1708731;83;21103;-66
2022/10/23 11:11:25;;;;;;;9.48;7.55;;;;;;;12.91;100.00;99350.77;1712287;82;21057;-66
2022/10/23 11:13:52;;;;;;;16.60;11.33;;;;;;;12.95;100.00;99349.08;1715555;82;21065;-66
2022/10/23 11:16:25;;;;;;;8.00;6.20;;;;;;;12.98;100.00;99346.30;1712489;82;21627;-66
2022/10/23 11:19:36;;;;;;;8.25;6.80;;;;;;;13.04;100.00;99346.47;1706299;83;21102;-66
2022/10/23 11:22:35;;;;;;;8.18;7.37;;;;;;;13.10;100.00;99349.43;1713630;83;21040;-67
2022/10/23 11:25:25;;;;;;;10.10;7.78;;;;;;;13.16;100.00;99349.59;1701564;82;21078;-66
2022/10/23 11:28:16;;;;;;;10.50;7.20;;;;;;;13.24;100.00;99348.11;1696189;84;21118;-66
2022/10/23 11:31:14;;;;;;;8.88;6.65;;;;;;;13.37;100.00;99350.89;1709312;82;21094;-66
2022/10/23 11:34:03;;;;;;;6.45;5.53;;;;;;;13.50;100.00;99352.60;1709613;82;21744;-67
2022/10/23 11:36:52;;;;;;;5.97;4.95;;;;;;;13.58;100.00;99354.63;1672534;84;21630;-66
2022/10/23 11:39:24;;;;;;;8.55;4.90;;;;;;;13.57;100.00;99360.64;1651166;85;21091;-67
2022/10/23 11:42:13;;;;;;;8.00;4.90;;;;;;;13.49;100.00;99354.52;1710189;82;21110;-66
2022/10/23 11:44:49;;;;;;;5.85;4.10;;;;;;;13.48;100.00;99359.73;1709489;82;21054;-66
2022/10/23 11:47:36;;;;;;;6.15;4.20;;;;;;;13.58;100.00;99365.02;1709710;82;21353;-66
2022/10/23 11:50:13;;;;;;;4.72;3.67;;;;;;;13.67;100.00;99358.31;1681883;84;21082;-67
2022/10/23 11:52:55;;;;;;;;;;;;;;;13.74;100.00;99358.18;1711541;84;21102;-66